Terminal Aerodrome Forecast
Issued by NWS

Home | Current Version | Previous Version | Text Only | Print | Product List | Glossary On
Versions: 1 2 3 4 5 6 7 8 9 10 11 12 13 14 15
000
FTUS46 KSGX 230700 AAA
TAFSNA
TAF AMD
KSNA 230709Z 2307/2406 VRB03KT P6SM FEW015 BKN250
      TEMPO 2309/2312 BKN015
     FM231300 VRB04KT P6SM SCT250 WS015/03030KT
     FM231600 05015G25KT P6SM SCT250
     FM231900 05010G20KT P6SM SCT250
     FM232300 05007KT P6SM SCT250=

USA.gov is the U.S. government's official web portal to all federal, state and local government web resources and services.